createdAt,value
2022-10-20T00:01:40.368Z,100.00
2022-10-20T00:04:09.399Z,100.00
2022-10-20T00:06:36.183Z,100.00
2022-10-20T00:09:04.337Z,100.00
2022-10-20T00:11:31.756Z,100.00
2022-10-20T00:14:00.193Z,100.00
2022-10-20T00:16:33.072Z,100.00
2022-10-20T00:19:02.946Z,100.00
2022-10-20T00:21:37.990Z,100.00
2022-10-20T00:24:12.118Z,100.00
2022-10-20T00:26:52.758Z,100.00
2022-10-20T00:29:27.839Z,100.00
2022-10-20T00:31:56.355Z,100.00
2022-10-20T00:34:33.047Z,100.00
2022-10-20T00:36:59.577Z,100.00
2022-10-20T00:42:19.826Z,100.00
2022-10-20T00:44:55.056Z,100.00
2022-10-20T00:47:42.586Z,100.00
2022-10-20T00:50:28.781Z,100.00
2022-10-20T00:53:13.023Z,100.00
2022-10-20T00:55:45.462Z,100.00
2022-10-20T00:58:12.009Z,100.00
2022-10-20T01:00:48.272Z,100.00
2022-10-20T01:03:17.544Z,100.00
2022-10-20T01:05:48.758Z,100.00
2022-10-20T01:08:18.508Z,100.00
2022-10-20T01:10:56.748Z,100.00
2022-10-20T01:13:32.608Z,100.00
2022-10-20T01:16:08.666Z,100.00
2022-10-20T01:18:46.396Z,100.00
2022-10-20T01:21:52.861Z,100.00
2022-10-20T01:24:23.134Z,100.00
2022-10-20T01:27:00.899Z,100.00
2022-10-20T01:29:27.406Z,100.00
2022-10-20T01:32:07.344Z,100.00
2022-10-20T01:34:46.884Z,100.00
2022-10-20T01:37:48.384Z,100.00
2022-10-20T01:40:28.307Z,100.00
2022-10-20T01:42:59.841Z,100.00
2022-10-20T01:45:33.195Z,100.00
2022-10-20T01:48:05.588Z,100.00
2022-10-20T01:50:44.913Z,100.00
2022-10-20T01:53:15.406Z,100.00
2022-10-20T01:55:51.777Z,100.00
2022-10-20T01:58:22.550Z,100.00
2022-10-20T02:01:01.086Z,100.00
2022-10-20T02:03:40.172Z,100.00
2022-10-20T02:06:23.485Z,100.00
2022-10-20T02:08:52.101Z,100.00
2022-10-20T02:11:25.769Z,100.00
2022-10-20T02:13:59.358Z,100.00
2022-10-20T02:16:38.960Z,100.00
2022-10-20T02:19:08.176Z,100.00
2022-10-20T02:21:37.688Z,100.00
2022-10-20T02:24:06.329Z,100.00
2022-10-20T02:26:34.131Z,100.00
2022-10-20T02:29:04.530Z,100.00
2022-10-20T02:31:35.965Z,100.00
2022-10-20T02:34:03.169Z,100.00
2022-10-20T02:36:29.860Z,100.00
2022-10-20T02:39:03.560Z,100.00
2022-10-20T02:41:32.003Z,100.00
2022-10-20T02:44:08.737Z,100.00
2022-10-20T02:46:37.627Z,100.00
2022-10-20T02:49:11.694Z,100.00
2022-10-20T02:51:41.803Z,100.00
2022-10-20T02:54:10.593Z,100.00
2022-10-20T02:56:38.485Z,100.00
2022-10-20T02:59:04.992Z,100.00
2022-10-20T03:01:31.627Z,100.00
2022-10-20T03:04:03.375Z,100.00
2022-10-20T03:06:30.054Z,100.00
2022-10-20T03:08:56.927Z,100.00
2022-10-20T03:11:23.744Z,100.00
2022-10-20T03:13:55.759Z,100.00
2022-10-20T03:16:31.456Z,100.00
2022-10-20T03:19:01.555Z,100.00
2022-10-20T03:21:31.941Z,100.00
2022-10-20T03:24:11.922Z,100.00
2022-10-20T03:26:40.026Z,100.00
2022-10-20T03:29:07.077Z,100.00
2022-10-20T03:31:38.139Z,100.00
2022-10-20T03:34:06.523Z,100.00
2022-10-20T03:36:36.245Z,100.00
2022-10-20T03:39:05.807Z,100.00
2022-10-20T03:41:32.729Z,100.00
2022-10-20T03:43:59.365Z,100.00
2022-10-20T03:46:27.045Z,100.00
2022-10-20T03:48:56.944Z,100.00
2022-10-20T03:51:23.626Z,100.00
2022-10-20T03:53:50.321Z,100.00
2022-10-20T03:56:20.553Z,100.00
2022-10-20T03:58:47.747Z,100.00
2022-10-20T04:01:19.154Z,100.00
2022-10-20T04:03:45.883Z,100.00
2022-10-20T04:06:13.315Z,100.00
2022-10-20T04:08:48.736Z,100.00
2022-10-20T04:11:15.639Z,100.00
2022-10-20T04:13:42.384Z,100.00
2022-10-20T04:16:09.164Z,100.00
2022-10-20T04:18:35.800Z,100.00
2022-10-20T04:21:02.367Z,100.00
2022-10-20T04:23:28.838Z,100.00
2022-10-20T04:25:55.366Z,100.00
2022-10-20T04:28:21.917Z,100.00
2022-10-20T04:30:48.652Z,100.00
2022-10-20T04:33:15.214Z,100.00
2022-10-20T04:35:41.889Z,100.00
2022-10-20T04:38:08.471Z,100.00
2022-10-20T04:40:34.955Z,100.00
2022-10-20T04:43:01.429Z,100.00
2022-10-20T04:45:28.088Z,100.00
2022-10-20T04:47:54.601Z,100.00
2022-10-20T04:50:21.195Z,100.00
2022-10-20T04:52:58.340Z,100.00
2022-10-20T04:55:25.004Z,100.00
2022-10-20T04:57:51.427Z,100.00
2022-10-20T05:00:17.994Z,100.00
2022-10-20T05:02:44.478Z,100.00
2022-10-20T05:05:11.002Z,100.00
2022-10-20T05:07:37.821Z,100.00
2022-10-20T05:10:05.011Z,100.00
2022-10-20T05:12:31.730Z,100.00
2022-10-20T05:14:58.246Z,100.00
2022-10-20T05:17:30.774Z,100.00
2022-10-20T05:19:57.258Z,100.00
2022-10-20T05:22:23.774Z,100.00
2022-10-20T05:24:50.316Z,100.00
2022-10-20T05:27:16.906Z,100.00
2022-10-20T05:29:43.595Z,100.00
2022-10-20T05:32:10.594Z,100.00
2022-10-20T05:34:38.459Z,100.00
2022-10-20T05:37:05.128Z,100.00
2022-10-20T05:39:31.689Z,100.00
2022-10-20T05:41:58.153Z,100.00
2022-10-20T05:44:24.804Z,100.00
2022-10-20T05:46:51.268Z,100.00
2022-10-20T05:49:18.424Z,100.00
2022-10-20T05:51:45.784Z,100.00
2022-10-20T05:54:12.589Z,100.00
2022-10-20T05:56:39.757Z,100.00
2022-10-20T05:59:06.264Z,100.00
2022-10-20T06:01:46.843Z,100.00
2022-10-20T06:04:14.831Z,100.00
2022-10-20T06:06:41.467Z,100.00
2022-10-20T06:09:08.748Z,100.00
2022-10-20T06:11:39.252Z,100.00
2022-10-20T06:14:07.095Z,100.00
2022-10-20T06:16:33.966Z,100.00
2022-10-20T06:19:00.744Z,100.00
2022-10-20T06:21:29.177Z,100.00
2022-10-20T06:23:59.785Z,100.00
2022-10-20T06:26:32.194Z,100.00
2022-10-20T06:29:03.919Z,100.00
2022-10-20T06:31:30.931Z,100.00
2022-10-20T06:33:58.189Z,100.00
2022-10-20T06:36:26.347Z,100.00
2022-10-20T06:38:54.271Z,100.00
2022-10-20T06:41:21.257Z,100.00
2022-10-20T06:43:47.815Z,100.00
2022-10-20T06:46:18.745Z,100.00
2022-10-20T06:48:45.793Z,100.00
2022-10-20T06:51:13.667Z,100.00
2022-10-20T06:53:44.070Z,100.00
2022-10-20T06:56:18.342Z,100.00
2022-10-20T06:58:46.043Z,100.00
2022-10-20T07:01:14.309Z,100.00
2022-10-20T07:03:41.212Z,100.00
2022-10-20T07:06:08.311Z,100.00
2022-10-20T07:08:35.765Z,100.00
2022-10-20T07:11:04.269Z,100.00
2022-10-20T07:13:31.276Z,100.00
2022-10-20T07:15:59.379Z,100.00
2022-10-20T07:18:27.222Z,100.00
2022-10-20T07:21:03.818Z,100.00
2022-10-20T07:23:31.267Z,100.00
2022-10-20T07:26:04.872Z,100.00
2022-10-20T07:28:31.798Z,100.00
2022-10-20T07:31:01.909Z,100.00
2022-10-20T07:33:28.541Z,100.00
2022-10-20T07:35:55.197Z,100.00
2022-10-20T07:38:21.735Z,100.00
2022-10-20T07:40:48.413Z,100.00
2022-10-20T07:43:15.117Z,100.00
2022-10-20T07:45:44.628Z,100.00
2022-10-20T07:48:11.266Z,100.00
2022-10-20T07:50:37.938Z,100.00
2022-10-20T07:53:05.904Z,97.21
2022-10-20T07:55:38.493Z,93.98
2022-10-20T07:58:06.433Z,96.91
2022-10-20T08:00:33.259Z,97.80
2022-10-20T08:02:59.989Z,95.73
2022-10-20T08:05:26.699Z,95.03
2022-10-20T08:07:53.298Z,94.39
2022-10-20T08:10:22.361Z,94.21
2022-10-20T08:12:50.324Z,94.88
2022-10-20T08:15:18.231Z,93.04
2022-10-20T08:17:44.889Z,91.91
2022-10-20T08:20:27.131Z,90.10
2022-10-20T08:22:56.425Z,89.16
2022-10-20T08:25:23.083Z,88.58
2022-10-20T08:27:49.797Z,88.81
2022-10-20T08:30:23.753Z,86.99
2022-10-20T08:32:52.326Z,85.71
2022-10-20T08:35:19.430Z,85.11
2022-10-20T08:37:50.159Z,84.47
2022-10-20T08:40:24.374Z,82.78
2022-10-20T08:42:51.165Z,80.37
2022-10-20T08:45:21.755Z,79.69
2022-10-20T08:47:54.349Z,76.61
2022-10-20T08:50:24.184Z,77.83
2022-10-20T08:52:54.178Z,77.33
2022-10-20T08:55:33.041Z,77.15
2022-10-20T08:58:35.039Z,73.05
2022-10-20T09:01:13.984Z,72.91
2022-10-20T09:03:41.645Z,71.88
2022-10-20T09:06:15.681Z,72.44
2022-10-20T09:08:43.246Z,72.32
2022-10-20T09:11:35.655Z,72.34
2022-10-20T09:14:10.558Z,72.09
2022-10-20T09:16:58.662Z,71.34
2022-10-20T09:19:27.747Z,71.14
2022-10-20T09:22:05.871Z,70.61
2022-10-20T09:24:34.700Z,68.91
2022-10-20T09:27:42.297Z,69.47
2022-10-20T09:30:20.706Z,66.37
2022-10-20T09:32:56.675Z,64.51
2022-10-20T09:35:35.603Z,63.07
2022-10-20T09:38:22.014Z,61.73
2022-10-20T09:41:07.559Z,63.47
2022-10-20T09:43:46.408Z,62.15
2022-10-20T09:46:16.726Z,62.20
2022-10-20T09:48:50.546Z,62.44
2022-10-20T09:51:24.740Z,62.85
2022-10-20T09:54:14.541Z,63.31
2022-10-20T09:56:52.314Z,61.36
2022-10-20T09:59:21.105Z,59.15
2022-10-20T10:01:58.725Z,60.33
2022-10-20T10:04:33.721Z,58.56
2022-10-20T10:07:01.993Z,58.78
2022-10-20T10:09:31.966Z,60.85
2022-10-20T10:11:59.920Z,60.39
2022-10-20T10:14:29.577Z,59.42
2022-10-20T10:16:58.511Z,60.06
2022-10-20T10:19:26.879Z,59.23
2022-10-20T10:21:55.494Z,59.19
2022-10-20T10:24:29.977Z,57.33
2022-10-20T10:26:56.961Z,58.08
2022-10-20T10:29:25.189Z,58.50
2022-10-20T10:32:11.986Z,59.42
2022-10-20T10:34:43.248Z,59.63
2022-10-20T10:37:14.498Z,59.51
2022-10-20T10:39:41.403Z,59.86
2022-10-20T10:42:25.934Z,60.59
2022-10-20T10:45:13.522Z,61.06
2022-10-20T10:48:15.526Z,60.68
2022-10-20T10:50:47.501Z,60.15
2022-10-20T10:53:17.130Z,58.26
2022-10-20T10:55:53.041Z,58.09
2022-10-20T10:58:19.609Z,59.06
2022-10-20T11:01:02.065Z,59.09
2022-10-20T11:03:37.643Z,59.00
2022-10-20T11:06:30.179Z,58.09
2022-10-20T11:09:05.876Z,57.07
2022-10-20T11:11:53.402Z,57.75
2022-10-20T11:14:26.028Z,58.33
2022-10-20T11:16:59.841Z,58.57
2022-10-20T11:19:44.946Z,58.40
2022-10-20T11:22:20.347Z,58.93
2022-10-20T11:25:11.009Z,59.68
2022-10-20T11:27:38.396Z,59.50
2022-10-20T11:30:18.279Z,60.18
2022-10-20T11:32:50.956Z,59.69
2022-10-20T11:35:20.626Z,59.01
2022-10-20T11:38:11.056Z,58.64
2022-10-20T11:40:39.048Z,57.21
2022-10-20T11:43:24.529Z,57.43
2022-10-20T11:45:54.242Z,56.83
2022-10-20T11:48:34.462Z,58.43
2022-10-20T11:51:07.365Z,57.08
2022-10-20T11:53:37.024Z,56.90
2022-10-20T11:56:15.389Z,55.88
2022-10-20T11:59:00.277Z,57.13
2022-10-20T12:01:38.799Z,56.74
2022-10-20T12:04:05.353Z,56.76
2022-10-20T12:06:54.254Z,55.15
2022-10-20T12:12:18.110Z,55.44
2022-10-20T12:14:49.527Z,55.60
2022-10-20T12:17:35.568Z,55.01
2022-10-20T12:20:20.393Z,54.87
2022-10-20T12:22:49.602Z,54.07
2022-10-20T12:25:25.133Z,54.09
2022-10-20T12:28:10.705Z,54.35
2022-10-20T12:30:37.427Z,53.82
2022-10-20T12:33:18.000Z,53.35
2022-10-20T12:36:13.423Z,52.60
2022-10-20T12:38:41.477Z,52.73
2022-10-20T12:41:08.934Z,52.35
2022-10-20T12:43:48.180Z,51.54
2022-10-20T12:46:20.677Z,52.75
2022-10-20T12:48:49.187Z,52.21
2022-10-20T12:51:21.282Z,51.04
2022-10-20T12:53:56.125Z,50.27
2022-10-20T12:56:22.907Z,50.81
2022-10-20T12:59:08.115Z,49.26
2022-10-20T13:01:53.627Z,48.67
2022-10-20T13:04:41.935Z,48.56
2022-10-20T13:07:11.202Z,48.54
2022-10-20T13:09:54.451Z,48.01
2022-10-20T13:12:25.270Z,47.52
2022-10-20T13:14:55.663Z,47.36
2022-10-20T13:17:27.246Z,47.01
2022-10-20T13:20:01.405Z,46.63
2022-10-20T13:22:40.286Z,45.68
2022-10-20T13:25:16.236Z,45.36
2022-10-20T13:27:42.946Z,44.57
2022-10-20T13:30:10.422Z,43.78
2022-10-20T13:32:48.030Z,42.89
2022-10-20T13:35:30.818Z,42.36
2022-10-20T13:37:59.766Z,41.57
2022-10-20T13:40:36.659Z,42.18
2022-10-20T13:43:23.575Z,40.43
2022-10-20T13:45:53.112Z,41.27
2022-10-20T13:48:31.899Z,40.56
2022-10-20T13:51:02.546Z,40.22
2022-10-20T13:53:31.725Z,40.07
2022-10-20T13:56:03.599Z,39.61
2022-10-20T13:58:30.398Z,39.61
2022-10-20T14:00:58.941Z,39.60
2022-10-20T14:03:25.493Z,39.89
2022-10-20T14:05:53.977Z,38.50
2022-10-20T14:08:23.504Z,38.45
2022-10-20T14:10:53.187Z,38.34
2022-10-20T14:13:21.815Z,38.58
2022-10-20T14:15:51.611Z,38.42
2022-10-20T14:18:21.518Z,38.14
2022-10-20T14:21:02.252Z,38.85
2022-10-20T14:23:33.554Z,38.69
2022-10-20T14:26:01.158Z,39.38
2022-10-20T14:28:32.257Z,39.35
2022-10-20T14:30:59.798Z,39.61
2022-10-20T14:33:29.029Z,39.46
2022-10-20T14:35:57.978Z,39.81
2022-10-20T14:38:29.094Z,40.06
2022-10-20T14:40:56.812Z,39.99
2022-10-20T14:43:34.546Z,40.23
2022-10-20T14:46:02.039Z,40.87
2022-10-20T14:48:35.307Z,41.19
2022-10-20T14:51:02.030Z,41.44
2022-10-20T14:53:30.048Z,41.47
2022-10-20T14:56:00.207Z,42.29
2022-10-20T14:58:32.638Z,42.81
2022-10-20T15:01:17.741Z,42.81
2022-10-20T15:03:44.383Z,43.34
2022-10-20T15:06:15.240Z,43.57
2022-10-20T15:08:54.622Z,43.76
2022-10-20T15:11:23.113Z,43.98
2022-10-20T15:13:55.197Z,44.41
2022-10-20T15:16:51.042Z,45.64
2022-10-20T15:19:46.946Z,46.79
2022-10-20T15:24:39.883Z,48.86
2022-10-20T15:27:13.198Z,50.09
2022-10-20T15:29:44.665Z,51.52
2022-10-20T15:32:12.260Z,52.21
2022-10-20T15:34:40.196Z,53.59
2022-10-20T15:37:06.955Z,55.34
2022-10-20T15:39:34.983Z,57.52
2022-10-20T15:42:01.831Z,57.72
2022-10-20T15:44:28.492Z,57.97
2022-10-20T15:46:55.721Z,57.93
2022-10-20T15:49:23.320Z,61.66
2022-10-20T15:51:50.235Z,64.63
2022-10-20T15:54:18.317Z,64.95
2022-10-20T15:56:45.033Z,65.68
2022-10-20T15:59:11.666Z,65.87
2022-10-20T16:01:38.437Z,66.31
2022-10-20T16:04:16.283Z,67.76
2022-10-20T16:06:44.165Z,69.01
2022-10-20T16:09:13.578Z,70.66
2022-10-20T16:11:43.698Z,70.94
2022-10-20T16:14:10.386Z,70.96
2022-10-20T16:16:44.338Z,72.61
2022-10-20T16:19:11.065Z,71.91
2022-10-20T16:21:37.559Z,72.03
2022-10-20T16:24:08.100Z,73.45
2022-10-20T16:26:34.641Z,76.77
2022-10-20T16:29:01.392Z,75.79
2022-10-20T16:31:28.925Z,78.68
2022-10-20T16:33:57.969Z,78.83
2022-10-20T16:36:24.469Z,79.82
2022-10-20T16:38:54.229Z,79.89
2022-10-20T16:41:20.818Z,81.53
2022-10-20T16:43:47.384Z,82.33
2022-10-20T16:46:14.694Z,84.10
2022-10-20T16:48:46.406Z,85.32
2022-10-20T16:51:15.013Z,84.77
2022-10-20T16:53:41.500Z,84.27
2022-10-20T16:56:08.464Z,86.03
2022-10-20T16:58:35.185Z,86.91
2022-10-20T17:01:01.809Z,87.71
2022-10-20T17:03:29.626Z,87.45
2022-10-20T17:05:57.435Z,88.76
2022-10-20T17:08:25.347Z,88.91
2022-10-20T17:10:56.152Z,89.24
2022-10-20T17:13:22.864Z,90.19
2022-10-20T17:15:49.819Z,91.21
2022-10-20T17:18:16.844Z,91.73
2022-10-20T17:20:43.431Z,93.43
2022-10-20T17:23:09.995Z,93.87
2022-10-20T17:25:36.904Z,94.08
2022-10-20T17:28:03.544Z,94.99
2022-10-20T17:30:30.188Z,94.59
2022-10-20T17:32:56.721Z,95.98
2022-10-20T17:35:23.287Z,96.00
2022-10-20T17:37:51.111Z,95.48
2022-10-20T17:40:21.387Z,93.86
2022-10-20T17:42:47.867Z,94.35
2022-10-20T17:45:14.504Z,92.66
2022-10-20T17:47:43.588Z,95.38
2022-10-20T17:50:10.783Z,96.65
2022-10-20T17:52:37.846Z,96.65
2022-10-20T17:55:07.129Z,96.69
2022-10-20T17:57:33.751Z,99.27
2022-10-20T18:00:03.164Z,99.89
2022-10-20T18:02:32.227Z,99.42
2022-10-20T18:04:58.777Z,99.66
2022-10-20T18:07:27.492Z,97.19
2022-10-20T18:09:54.237Z,94.96
2022-10-20T18:12:20.820Z,95.43
2022-10-20T18:14:47.490Z,99.59
2022-10-20T18:17:13.968Z,100.00
2022-10-20T18:19:40.781Z,100.00
2022-10-20T18:22:07.361Z,100.00
2022-10-20T18:24:35.167Z,100.00
2022-10-20T18:27:01.644Z,100.00
2022-10-20T18:29:28.552Z,100.00
2022-10-20T18:31:55.095Z,100.00
2022-10-20T18:34:21.634Z,100.00
2022-10-20T18:36:49.730Z,100.00
2022-10-20T18:39:16.917Z,100.00
2022-10-20T18:41:44.983Z,100.00
2022-10-20T18:44:14.703Z,100.00
2022-10-20T18:46:42.139Z,100.00
2022-10-20T18:49:21.261Z,100.00
2022-10-20T18:52:02.453Z,100.00
2022-10-20T18:54:33.631Z,100.00
2022-10-20T18:57:00.172Z,100.00
2022-10-20T18:59:36.688Z,100.00
2022-10-20T19:02:12.071Z,100.00
2022-10-20T19:04:40.290Z,100.00
2022-10-20T19:07:08.061Z,100.00
2022-10-20T19:09:34.677Z,100.00
2022-10-20T19:12:02.802Z,100.00
2022-10-20T19:14:32.399Z,100.00
2022-10-20T19:17:15.264Z,100.00
2022-10-20T19:19:46.532Z,100.00
2022-10-20T19:22:13.951Z,100.00
2022-10-20T19:24:43.751Z,100.00
2022-10-20T19:27:27.196Z,100.00
2022-10-20T19:29:55.318Z,100.00
2022-10-20T19:32:23.037Z,100.00
2022-10-20T19:34:50.636Z,100.00
2022-10-20T19:37:18.206Z,100.00
2022-10-20T19:39:44.870Z,100.00
2022-10-20T19:42:11.744Z,100.00
2022-10-20T19:44:44.995Z,100.00
2022-10-20T19:47:21.912Z,100.00
2022-10-20T19:49:59.011Z,100.00
2022-10-20T19:52:28.152Z,100.00
2022-10-20T19:54:54.957Z,100.00
2022-10-20T19:57:23.898Z,100.00
2022-10-20T19:59:54.487Z,100.00
2022-10-20T20:02:21.776Z,100.00
2022-10-20T20:05:00.636Z,100.00
2022-10-20T20:07:27.178Z,100.00
2022-10-20T20:10:02.820Z,100.00
2022-10-20T20:12:32.975Z,100.00
2022-10-20T20:15:09.048Z,100.00
2022-10-20T20:17:46.999Z,100.00
2022-10-20T20:20:29.107Z,100.00
2022-10-20T20:23:01.344Z,100.00
2022-10-20T20:25:35.333Z,100.00
2022-10-20T20:28:11.831Z,100.00
2022-10-20T20:30:43.829Z,100.00
2022-10-20T20:33:14.344Z,100.00
2022-10-20T20:35:41.301Z,100.00
2022-10-20T20:38:18.363Z,100.00
2022-10-20T20:40:49.526Z,100.00
2022-10-20T20:43:19.468Z,100.00
2022-10-20T20:45:49.048Z,100.00
2022-10-20T20:48:28.960Z,100.00
2022-10-20T20:50:58.267Z,100.00
2022-10-20T20:53:24.826Z,100.00
2022-10-20T20:56:14.767Z,100.00
2022-10-20T20:58:58.582Z,100.00
2022-10-20T21:01:34.355Z,100.00
2022-10-20T21:04:04.673Z,100.00
2022-10-20T21:06:37.944Z,100.00
2022-10-20T21:09:13.487Z,100.00
2022-10-20T21:11:42.320Z,100.00
2022-10-20T21:14:14.949Z,100.00
2022-10-20T21:16:43.893Z,100.00
2022-10-20T21:19:11.549Z,100.00
2022-10-20T21:21:46.583Z,100.00
2022-10-20T21:24:13.463Z,100.00
2022-10-20T21:26:40.065Z,100.00
2022-10-20T21:29:10.102Z,100.00
2022-10-20T21:31:41.727Z,100.00
2022-10-20T21:34:17.162Z,100.00
2022-10-20T21:36:46.763Z,100.00
2022-10-20T21:39:16.924Z,100.00
2022-10-20T21:41:50.689Z,100.00
2022-10-20T21:44:18.651Z,100.00
2022-10-20T21:46:49.596Z,100.00
2022-10-20T21:49:22.815Z,100.00
2022-10-20T21:51:55.683Z,100.00
2022-10-20T21:54:24.861Z,100.00
2022-10-20T21:56:59.690Z,100.00
2022-10-20T21:59:35.780Z,100.00
2022-10-20T22:02:16.523Z,100.00
2022-10-20T22:04:42.991Z,100.00
2022-10-20T22:07:10.089Z,100.00
2022-10-20T22:09:42.231Z,100.00
2022-10-20T22:12:08.770Z,100.00
2022-10-20T22:14:47.347Z,100.00
2022-10-20T22:17:17.060Z,100.00
2022-10-20T22:19:45.821Z,100.00
2022-10-20T22:22:16.275Z,100.00
2022-10-20T22:24:43.393Z,100.00
2022-10-20T22:27:15.630Z,100.00
2022-10-20T22:29:57.447Z,100.00
2022-10-20T22:32:27.433Z,100.00
2022-10-20T22:34:56.118Z,100.00
2022-10-20T22:37:32.146Z,100.00
2022-10-20T22:40:00.908Z,100.00
2022-10-20T22:42:27.627Z,100.00
2022-10-20T22:45:07.022Z,100.00
2022-10-20T22:47:33.551Z,100.00
2022-10-20T22:50:04.490Z,100.00
2022-10-20T22:52:31.033Z,100.00
2022-10-20T22:54:58.027Z,100.00
2022-10-20T22:57:24.684Z,100.00
2022-10-20T22:59:57.743Z,100.00
2022-10-20T23:02:24.769Z,100.00
2022-10-20T23:04:55.737Z,100.00
2022-10-20T23:07:23.431Z,100.00
2022-10-20T23:09:52.567Z,100.00
2022-10-20T23:12:21.392Z,100.00
2022-10-20T23:14:49.117Z,100.00
2022-10-20T23:17:17.180Z,100.00
2022-10-20T23:19:45.921Z,100.00
2022-10-20T23:22:14.222Z,100.00
2022-10-20T23:24:40.862Z,100.00
2022-10-20T23:27:08.169Z,100.00
2022-10-20T23:29:34.863Z,100.00
2022-10-20T23:32:03.747Z,100.00
2022-10-20T23:34:48.035Z,100.00
2022-10-20T23:37:20.371Z,100.00
2022-10-20T23:39:47.888Z,100.00
2022-10-20T23:42:14.427Z,100.00
2022-10-20T23:44:44.143Z,100.00
2022-10-20T23:47:17.326Z,100.00
2022-10-20T23:49:44.023Z,100.00
2022-10-20T23:52:11.775Z,100.00
2022-10-20T23:54:38.987Z,100.00
2022-10-20T23:57:05.697Z,100.00
2022-10-20T23:59:38.083Z,100.00
